Time;durP1;ratioP1;P1;durP2;ratioP2;P2;SDS_P1;SDS_P2;PMS_P1;PMS_P2;Temp;Humidity;BMP_temperature;BMP_pressure;BME280_temperature;BME280_humidity;BME280_pressure;Samples;Min_cycle;Max_cycle;Signal;HPM_P1;HPM_P2
2023/07/08 00:00:18;;;;;;;;;;;;;;;23.83;74.11;97034.70;619365;229;67249;-64
2023/07/08 00:02:49;;;;;;;;;;;;;;;23.82;74.10;97035.80;619313;229;64956;-64
2023/07/08 00:05:17;;;;;;;;;;;;;;;23.82;74.07;97038.48;619355;229;63036;-62
2023/07/08 00:07:45;;;;;;;;;;;;;;;23.83;74.11;97045.44;619314;229;65010;-62
2023/07/08 00:10:20;;;;;;;;;;;;;;;23.83;74.10;97047.33;619392;229;64967;-62
2023/07/08 00:12:52;;;;;;;;;;;;;;;23.83;74.10;97055.38;624749;227;64256;-62
2023/07/08 00:15:24;;;;;;;;;;;;;;;23.84;74.09;97062.33;624489;227;67351;-62
2023/07/08 00:17:51;;;;;;;;;;;;;;;23.83;74.11;97060.75;624716;227;64932;-62
2023/07/08 00:20:21;;;;;;;;;;;;;;;23.83;74.11;97061.54;624731;227;62620;-62
2023/07/08 00:22:53;;;;;;;;;;;;;;;23.83;74.13;97064.22;623662;227;64869;-62
2023/07/08 00:25:23;;;;;;;;;;;;;;;23.84;74.09;97067.70;624569;227;64632;-62
2023/07/08 00:27:48;;;;;;;;;;;;;;;23.83;74.10;97061.54;624437;227;65275;-62
2023/07/08 00:30:18;;;;;;;;;;;;;;;23.84;74.12;97059.65;624719;227;67139;-62
2023/07/08 00:32:45;;;;;;;;;;;;;;;23.83;74.10;97056.17;624664;227;66056;-62
2023/07/08 00:35:13;;;;;;;;;;;;;;;23.83;74.10;97061.54;624703;227;64872;-64
2023/07/08 00:37:40;;;;;;;;;;;;;;;23.83;74.11;97060.75;624730;227;67113;-64
2023/07/08 00:40:15;;;;;;;;;;;;;;;23.83;74.12;97063.43;624759;227;66888;-64
2023/07/08 00:42:44;;;;;;;;;;;;;;;23.84;74.12;97062.33;624399;227;65897;-64
2023/07/08 00:45:22;;;;;;;;;;;;;;;23.83;74.11;97061.54;624736;227;64966;-64
2023/07/08 00:47:50;;;;;;;;;;;;;;;23.82;74.10;97062.64;624190;227;66654;-64
2023/07/08 00:50:18;;;;;;;;;;;;;;;23.83;74.11;97064.22;624736;227;65515;-64
2023/07/08 00:52:46;;;;;;;;;;;;;;;23.83;74.13;97066.11;624752;227;66863;-64
2023/07/08 00:55:14;;;;;;;;;;;;;;;23.84;74.11;97067.70;624721;227;65036;-64
2023/07/08 00:57:43;;;;;;;;;;;;;;;23.82;74.13;97070.69;624679;227;65189;-64
2023/07/08 01:00:16;;;;;;;;;;;;;;;23.83;74.11;97066.11;624724;227;64878;-63
2023/07/08 01:02:45;;;;;;;;;;;;;;;23.83;74.12;97060.75;624716;227;65082;-64
2023/07/08 01:05:14;;;;;;;;;;;;;;;23.83;74.13;97066.11;624714;227;62353;-64
2023/07/08 01:07:43;;;;;;;;;;;;;;;23.83;74.10;97066.91;624776;227;64775;-63
2023/07/08 01:10:12;;;;;;;;;;;;;;;23.83;74.12;97068.80;624619;227;66879;-63
2023/07/08 01:12:41;;;;;;;;;;;;;;;23.82;74.12;97056.48;619800;227;64858;-63
2023/07/08 01:15:09;;;;;;;;;;;;;;;23.83;74.11;97071.48;619366;229;68002;-63
2023/07/08 01:17:37;;;;;;;;;;;;;;;23.82;74.11;97059.95;619378;229;67053;-64
2023/07/08 01:20:06;;;;;;;;;;;;;;;23.82;74.13;97065.32;619344;227;62723;-63
2023/07/08 01:22:37;;;;;;;;;;;;;;;23.82;74.11;97059.16;619316;229;64567;-64
2023/07/08 01:25:06;;;;;;;;;;;;;;;23.82;74.12;97059.16;619302;229;67373;-63
2023/07/08 01:27:35;;;;;;;;;;;;;;;23.83;74.11;97066.11;619338;229;65071;-63
2023/07/08 01:30:04;;;;;;;;;;;;;;;23.83;74.11;97058.06;619354;229;64671;-63
2023/07/08 01:32:33;;;;;;;;;;;;;;;23.82;74.11;97059.16;619328;229;67093;-63
2023/07/08 01:35:03;;;;;;;;;;;;;;;23.83;74.12;97060.75;619331;229;65648;-63
2023/07/08 01:37:35;;;;;;;;;;;;;;;23.82;74.11;97069.89;619340;228;64818;-63
2023/07/08 01:40:16;;;;;;;;;;;;;;;23.82;74.08;97064.53;619297;229;64250;-63
2023/07/08 01:42:44;;;;;;;;;;;;;;;23.82;74.10;97070.69;615235;229;64811;-63
2023/07/08 01:45:15;;;;;;;;;;;;;;;23.82;74.10;97061.84;619305;229;67328;-63
2023/07/08 01:47:44;;;;;;;;;;;;;;;23.82;74.11;97070.69;619354;229;67607;-63
2023/07/08 01:50:12;;;;;;;;;;;;;;;23.82;74.11;97061.84;619333;227;62682;-63
2023/07/08 01:52:40;;;;;;;;;;;;;;;23.82;74.12;97067.21;619318;229;64509;-63
2023/07/08 01:55:08;;;;;;;;;;;;;;;23.82;74.10;97064.53;619356;229;67048;-63
2023/07/08 01:57:36;;;;;;;;;;;;;;;23.82;74.12;97069.89;619305;229;63550;-63
2023/07/08 02:00:04;;;;;;;;;;;;;;;23.81;74.09;97077.13;619350;229;67332;-63
2023/07/08 02:02:33;;;;;;;;;;;;;;;23.81;74.12;97071.75;619163;227;44763;-63
2023/07/08 02:05:01;;;;;;;;;;;;;;;23.81;74.12;97069.07;619357;229;63653;-63
2023/07/08 02:07:28;;;;;;;;;;;;;;;23.82;74.10;97072.58;619373;229;64261;-63
2023/07/08 02:09:56;;;;;;;;;;;;;;;23.82;74.11;97072.58;619327;229;64680;-63
2023/07/08 02:12:23;;;;;;;;;;;;;;;23.82;74.12;97080.63;619361;227;65695;-63
2023/07/08 02:14:50;;;;;;;;;;;;;;;23.82;74.11;97075.27;619399;229;66985;-63
2023/07/08 02:17:18;;;;;;;;;;;;;;;23.82;74.10;97070.69;619378;229;64450;-63
2023/07/08 02:19:46;;;;;;;;;;;;;;;23.81;74.05;97069.07;619370;229;62478;-63
2023/07/08 02:22:14;;;;;;;;;;;;;;;23.81;74.08;97070.96;619407;229;66854;-64
2023/07/08 02:24:42;;;;;;;;;;;;;;;23.82;74.10;97073.38;619416;229;66870;-63
2023/07/08 02:27:09;;;;;;;;;;;;;;;23.83;74.11;97082.22;619350;229;65044;-63
2023/07/08 02:29:38;;;;;;;;;;;;;;;23.82;74.08;97080.63;619364;229;67044;-63
2023/07/08 02:32:06;;;;;;;;;;;;;;;23.82;74.08;97086.00;619325;229;66888;-63
2023/07/08 02:34:34;;;;;;;;;;;;;;;23.82;74.07;97080.63;619344;229;63007;-63
2023/07/08 02:37:01;;;;;;;;;;;;;;;23.82;74.10;97084.11;619317;229;67077;-63
2023/07/08 02:39:29;;;;;;;;;;;;;;;23.82;74.05;97083.31;619412;229;64813;-63
2023/07/08 02:41:56;;;;;;;;;;;;;;;23.82;74.11;97088.68;619349;229;62907;-63
2023/07/08 02:44:24;;;;;;;;;;;;;;;23.81;74.09;97090.54;619362;229;65902;-63
2023/07/08 02:46:51;;;;;;;;;;;;;;;23.82;74.06;97088.68;619330;229;65799;-63
2023/07/08 02:49:19;;;;;;;;;;;;;;;23.82;74.05;97076.05;619372;229;62724;-62
2023/07/08 02:51:46;;;;;;;;;;;;;;;23.82;74.05;97084.11;619376;229;65669;-62
2023/07/08 02:54:14;;;;;;;;;;;;;;;23.81;74.09;97076.33;619396;229;64678;-63
2023/07/08 02:56:41;;;;;;;;;;;;;;;23.82;74.04;97077.95;619386;229;62617;-64
2023/07/08 02:59:09;;;;;;;;;;;;;;;23.81;74.06;97084.38;619343;229;67187;-64
2023/07/08 03:01:41;;;;;;;;;;;;;;;23.81;74.05;97079.80;619332;229;67319;-64
2023/07/08 03:04:06;;;;;;;;;;;;;;;23.81;74.07;97070.96;619266;229;62671;-64
2023/07/08 03:06:33;;;;;;;;;;;;;;;23.82;74.03;97080.63;619342;229;67174;-64
2023/07/08 03:09:01;;;;;;;;;;;;;;;23.81;74.05;97082.48;619369;229;66914;-64
2023/07/08 03:11:28;;;;;;;;;;;;;;;23.80;74.02;97082.80;618802;227;65271;-64
2023/07/08 03:13:56;;;;;;;;;;;;;;;23.80;74.05;97086.27;620495;227;67107;-64
2023/07/08 03:16:23;;;;;;;;;;;;;;;23.80;74.04;97088.95;623217;227;66918;-62
2023/07/08 03:18:51;;;;;;;;;;;;;;;23.81;74.01;97087.06;623151;227;65126;-62
2023/07/08 03:21:21;;;;;;;;;;;;;;;23.81;74.01;97089.75;623132;226;67310;-64
2023/07/08 03:23:49;;;;;;;;;;;;;;;23.81;74.00;97095.11;623160;227;64943;-64
2023/07/08 03:26:18;;;;;;;;;;;;;;;23.81;74.04;97098.59;623104;227;64984;-62
2023/07/08 03:28:47;;;;;;;;;;;;;;;23.81;74.05;97095.91;623194;227;67410;-62
2023/07/08 03:31:15;;;;;;;;;;;;;;;23.80;74.04;97094.32;623119;227;67003;-62
2023/07/08 03:33:43;;;;;;;;;;;;;;;23.81;74.07;97090.54;623156;227;63022;-62
2023/07/08 03:36:23;;;;;;;;;;;;;;;23.80;74.06;97097.00;622830;227;67034;-63
2023/07/08 03:38:53;;;;;;;;;;;;;;;23.80;74.04;97086.27;623170;227;67045;-62
2023/07/08 03:41:20;;;;;;;;;;;;;;;23.81;74.07;97087.06;622983;226;64879;-62
2023/07/08 03:43:50;;;;;;;;;;;;;;;23.81;74.09;97092.43;623193;227;67705;-62
2023/07/08 03:46:19;;;;;;;;;;;;;;;23.81;74.08;97100.48;622845;227;64966;-62
2023/07/08 03:48:47;;;;;;;;;;;;;;;23.80;74.06;97096.21;623143;227;63029;-62
2023/07/08 03:51:20;;;;;;;;;;;;;;;23.80;74.08;97098.89;622842;227;67731;-62
2023/07/08 03:53:48;;;;;;;;;;;;;;;23.80;74.08;97101.58;623058;226;64723;-63
2023/07/08 03:56:15;;;;;;;;;;;;;;;23.80;74.07;97115.00;623158;227;65748;-65
2023/07/08 03:58:43;;;;;;;;;;;;;;;23.80;74.06;97115.00;623129;227;67159;-63
2023/07/08 04:01:16;;;;;;;;;;;;;;;23.80;74.10;97125.73;623142;227;67768;-63
2023/07/08 04:03:44;;;;;;;;;;;;;;;23.81;74.08;97124.63;622988;226;66088;-63
2023/07/08 04:06:12;;;;;;;;;;;;;;;23.80;74.09;97125.73;623144;227;65706;-61
2023/07/08 04:08:40;;;;;;;;;;;;;;;23.80;74.08;97125.73;623135;227;67594;-61
2023/07/08 04:11:09;;;;;;;;;;;;;;;23.80;74.09;97120.36;623782;227;64884;-61
2023/07/08 04:13:36;;;;;;;;;;;;;;;23.79;74.09;97119.57;625234;227;67213;-61
2023/07/08 04:16:05;;;;;;;;;;;;;;;23.80;74.09;97117.68;625203;227;67356;-61
2023/07/08 04:18:33;;;;;;;;;;;;;;;23.79;74.10;97129.48;625251;227;65097;-61
2023/07/08 04:21:02;;;;;;;;;;;;;;;23.80;74.10;97131.89;625214;227;67302;-61
2023/07/08 04:23:29;;;;;;;;;;;;;;;23.79;74.07;97121.43;625280;227;66882;-61
2023/07/08 04:25:58;;;;;;;;;;;;;;;23.80;74.10;97128.41;625222;227;65149;-61
2023/07/08 04:28:26;;;;;;;;;;;;;;;23.80;74.06;97128.41;625259;227;67140;-62
2023/07/08 04:30:53;;;;;;;;;;;;;;;23.79;74.07;97124.94;625258;227;66967;-62
2023/07/08 04:33:21;;;;;;;;;;;;;;;23.80;74.08;97126.52;625257;227;64839;-62
2023/07/08 04:35:49;;;;;;;;;;;;;;;23.79;74.09;97121.43;625221;224;66704;-62
2023/07/08 04:38:23;;;;;;;;;;;;;;;23.79;74.05;97122.25;625240;227;66845;-62
2023/07/08 04:40:52;;;;;;;;;;;;;;;23.80;74.03;97125.73;625199;227;65083;-62
2023/07/08 04:43:20;;;;;;;;;;;;;;;23.79;74.06;97116.89;625231;227;67388;-62
2023/07/08 04:45:51;;;;;;;;;;;;;;;23.80;74.07;97115.00;625210;226;47066;-63
2023/07/08 04:48:21;;;;;;;;;;;;;;;23.80;74.05;97115.00;625170;227;62911;-63
2023/07/08 04:50:50;;;;;;;;;;;;;;;23.80;74.06;97112.31;625047;227;67176;-63
2023/07/08 04:53:17;;;;;;;;;;;;;;;23.80;74.07;97106.95;624936;227;67017;-64
2023/07/08 04:55:46;;;;;;;;;;;;;;;23.79;74.07;97103.47;625241;227;64952;-64
2023/07/08 04:58:14;;;;;;;;;;;;;;;23.79;74.07;97097.28;625216;226;67158;-63
2023/07/08 05:00:41;;;;;;;;;;;;;;;23.79;74.02;97091.91;624893;227;67063;-64
2023/07/08 05:03:09;;;;;;;;;;;;;;;23.78;74.03;97093.80;625261;227;64856;-63
2023/07/08 05:05:36;;;;;;;;;;;;;;;23.79;74.04;97097.28;625196;227;67140;-63
2023/07/08 05:08:04;;;;;;;;;;;;;;;23.79;74.03;97095.42;625213;227;64892;-63
2023/07/08 05:10:32;;;;;;;;;;;;;;;23.79;74.04;97091.91;625127;226;65061;-63
2023/07/08 05:13:00;;;;;;;;;;;;;;;23.79;74.03;97092.73;623822;227;67281;-63
2023/07/08 05:15:27;;;;;;;;;;;;;;;23.79;74.02;97078.49;623818;227;67068;-63
2023/07/08 05:17:55;;;;;;;;;;;;;;;23.78;74.04;97075.02;623838;227;65026;-63
2023/07/08 05:20:22;;;;;;;;;;;;;;;23.78;74.02;97080.38;623819;227;67195;-63
2023/07/08 05:22:50;;;;;;;;;;;;;;;23.79;74.02;97075.81;623867;227;66622;-63
2023/07/08 05:25:20;;;;;;;;;;;;;;;23.79;74.04;97081.17;623795;227;62862;-63
2023/07/08 05:27:48;;;;;;;;;;;;;;;23.78;74.02;97082.27;623784;227;67246;-63
2023/07/08 05:30:17;;;;;;;;;;;;;;;23.78;74.02;97075.02;623877;227;65238;-63
2023/07/08 05:32:44;;;;;;;;;;;;;;;23.78;73.98;97096.48;623827;227;65057;-63
2023/07/08 05:35:12;;;;;;;;;;;;;;;23.79;74.00;97087.37;623797;227;67149;-63
2023/07/08 05:37:39;;;;;;;;;;;;;;;23.79;74.01;97089.23;623730;227;66925;-63
2023/07/08 05:40:08;;;;;;;;;;;;;;;23.80;74.00;97080.11;623643;227;62982;-63
2023/07/08 05:42:36;;;;;;;;;;;;;;;23.78;74.01;97091.12;623841;227;67319;-63
2023/07/08 05:45:06;;;;;;;;;;;;;;;23.79;74.01;97078.49;623829;227;64640;-63
2023/07/08 05:47:33;;;;;;;;;;;;;;;23.78;74.00;97085.75;623833;227;65058;-63
2023/07/08 05:50:01;;;;;;;;;;;;;;;23.79;74.03;97094.59;623817;227;66876;-63
2023/07/08 05:52:28;;;;;;;;;;;;;;;23.77;74.00;97088.73;623869;227;64589;-63
2023/07/08 05:54:56;;;;;;;;;;;;;;;23.78;74.01;97098.38;623788;227;63008;-63
2023/07/08 05:57:26;;;;;;;;;;;;;;;23.79;74.03;97097.28;623827;227;67418;-65
2023/07/08 05:59:54;;;;;;;;;;;;;;;23.78;73.98;97096.48;623838;227;64428;-65
2023/07/08 06:02:23;;;;;;;;;;;;;;;23.78;73.99;97090.33;623824;227;62904;-64
2023/07/08 06:04:50;;;;;;;;;;;;;;;23.78;73.97;97098.38;623786;227;67116;-63
2023/07/08 06:07:18;;;;;;;;;;;;;;;23.78;73.97;97095.69;623855;227;66993;-63
2023/07/08 06:09:45;;;;;;;;;;;;;;;23.78;74.02;97103.74;623821;227;62921;-63
2023/07/08 06:12:13;;;;;;;;;;;;;;;23.77;74.20;97094.11;624886;227;64648;-64
2023/07/08 06:14:40;;;;;;;;;;;;;;;23.78;74.52;97103.74;625237;227;64687;-63
2023/07/08 06:17:09;;;;;;;;;;;;;;;23.78;74.25;97106.42;625244;227;63602;-63
2023/07/08 06:19:37;;;;;;;;;;;;;;;23.79;74.21;97105.33;625199;227;64700;-63
2023/07/08 06:22:04;;;;;;;;;;;;;;;23.80;74.20;97106.95;625280;227;64703;-63
2023/07/08 06:24:32;;;;;;;;;;;;;;;23.79;74.19;97110.70;625251;227;63128;-63
2023/07/08 06:26:59;;;;;;;;;;;;;;;23.79;74.16;97097.28;625205;227;64701;-63
2023/07/08 06:29:27;;;;;;;;;;;;;;;23.80;74.16;97105.05;625269;227;64694;-63
2023/07/08 06:31:54;;;;;;;;;;;;;;;23.80;74.23;97101.58;625217;227;62944;-63
2023/07/08 06:34:23;;;;;;;;;;;;;;;23.81;74.21;97105.84;625154;227;64475;-63
2023/07/08 06:36:51;;;;;;;;;;;;;;;23.80;74.25;97110.42;625227;227;64620;-63
2023/07/08 06:39:18;;;;;;;;;;;;;;;23.81;74.34;97106.64;625196;227;63061;-63
2023/07/08 06:41:46;;;;;;;;;;;;;;;23.81;74.41;97106.64;625204;227;64988;-63
2023/07/08 06:44:15;;;;;;;;;;;;;;;23.81;74.40;97103.95;625171;227;67936;-63
2023/07/08 06:46:42;;;;;;;;;;;;;;;23.82;74.49;97107.47;625273;227;64994;-63
2023/07/08 06:49:12;;;;;;;;;;;;;;;23.82;74.46;97108.26;625112;226;65111;-63
2023/07/08 06:51:39;;;;;;;;;;;;;;;23.81;74.56;97103.95;625185;227;67028;-63
2023/07/08 06:54:11;;;;;;;;;;;;;;;23.82;74.53;97105.58;625212;227;64890;-64
2023/07/08 06:56:36;;;;;;;;;;;;;;;23.82;74.56;97110.15;625119;226;67205;-63
2023/07/08 06:59:03;;;;;;;;;;;;;;;23.82;74.59;97107.47;625282;227;67060;-63
2023/07/08 07:01:31;;;;;;;;;;;;;;;23.83;74.65;97103.69;625226;225;65068;-63
2023/07/08 07:03:59;;;;;;;;;;;;;;;23.83;74.60;97111.73;625221;227;66881;-63
2023/07/08 07:06:27;;;;;;;;;;;;;;;23.82;74.63;97113.63;625252;227;67104;-63
2023/07/08 07:08:54;;;;;;;;;;;;;;;23.83;74.62;97111.73;625213;227;65113;-63
2023/07/08 07:11:22;;;;;;;;;;;;;;;23.83;74.69;97109.05;624728;226;67384;-63
2023/07/08 07:13:49;;;;;;;;;;;;;;;23.83;74.69;97114.42;623842;227;67009;-63
2023/07/08 07:16:16;;;;;;;;;;;;;;;23.84;74.69;97116.01;623781;227;65003;-63
2023/07/08 07:18:44;;;;;;;;;;;;;;;23.83;74.67;97127.84;623846;227;67099;-63
2023/07/08 07:21:12;;;;;;;;;;;;;;;23.83;74.72;97125.16;623854;227;66979;-63
2023/07/08 07:23:40;;;;;;;;;;;;;;;23.83;74.69;97131.31;623822;227;63001;-63
2023/07/08 07:26:07;;;;;;;;;;;;;;;23.83;74.71;97146.62;623916;224;64980;-63
2023/07/08 07:28:35;;;;;;;;;;;;;;;23.84;74.71;97140.16;623825;227;67031;-63
2023/07/08 07:31:05;;;;;;;;;;;;;;;23.84;74.73;97142.84;623821;227;62347;-63
2023/07/08 07:33:35;;;;;;;;;;;;;;;23.85;74.76;97149.83;623876;226;48612;-63
2023/07/08 07:36:02;;;;;;;;;;;;;;;23.84;74.75;97140.16;623753;227;65007;-63
2023/07/08 07:38:30;;;;;;;;;;;;;;;23.84;74.70;97143.64;623890;227;62980;-64
2023/07/08 07:40:59;;;;;;;;;;;;;;;23.84;74.67;97154.38;623799;227;65018;-64
2023/07/08 07:43:27;;;;;;;;;;;;;;;23.83;74.66;97150.09;623805;227;65786;-63
2023/07/08 07:45:54;;;;;;;;;;;;;;;23.85;74.68;97152.52;623536;227;65008;-63
2023/07/08 07:48:24;;;;;;;;;;;;;;;23.85;74.67;97161.36;623832;227;67118;-63
2023/07/08 07:50:52;;;;;;;;;;;;;;;23.85;74.63;97155.20;623874;227;64689;-64
2023/07/08 07:53:19;;;;;;;;;;;;;;;23.85;74.68;97157.87;623832;227;64862;-64
2023/07/08 07:55:47;;;;;;;;;;;;;;;23.85;74.72;97157.87;623795;227;65066;-64
2023/07/08 07:58:14;;;;;;;;;;;;;;;23.85;74.64;97149.83;623788;227;65365;-64
2023/07/08 08:00:41;;;;;;;;;;;;;;;23.85;74.62;97155.20;623813;227;62999;-64
2023/07/08 08:03:09;;;;;;;;;;;;;;;23.85;74.60;97155.20;623881;227;67270;-64
2023/07/08 08:05:36;;;;;;;;;;;;;;;23.86;74.62;97151.41;623822;227;67091;-64
2023/07/08 08:08:04;;;;;;;;;;;;;;;23.86;74.62;97156.78;623809;227;65123;-64
2023/07/08 08:10:33;;;;;;;;;;;;;;;23.85;74.60;97155.20;623743;227;67016;-64
2023/07/08 08:13:00;;;;;;;;;;;;;;;23.86;74.59;97159.47;623915;227;67001;-63
2023/07/08 08:15:28;;;;;;;;;;;;;;;23.86;74.63;97156.78;623923;227;64935;-63
2023/07/08 08:17:56;;;;;;;;;;;;;;;23.86;74.66;97156.78;623866;227;66897;-63
2023/07/08 08:20:24;;;;;;;;;;;;;;;23.86;74.61;97167.52;623865;227;66846;-63
2023/07/08 08:22:52;;;;;;;;;;;;;;;23.86;74.63;97162.15;623788;227;65217;-63
2023/07/08 08:25:20;;;;;;;;;;;;;;;23.87;74.62;97161.05;623824;227;67384;-63
2023/07/08 08:27:48;;;;;;;;;;;;;;;23.86;74.60;97157.58;623884;227;64869;-63
2023/07/08 08:30:17;;;;;;;;;;;;;;;23.87;74.60;97163.73;623855;226;62805;-63
2023/07/08 08:32:45;;;;;;;;;;;;;;;23.87;74.59;97161.05;623834;227;67275;-63
2023/07/08 08:35:12;;;;;;;;;;;;;;;23.87;74.60;97167.25;623817;224;64942;-65
2023/07/08 08:37:40;;;;;;;;;;;;;;;23.86;74.60;97172.89;623884;227;63789;-63
2023/07/08 08:40:09;;;;;;;;;;;;;;;23.86;74.58;97173.68;623893;227;67119;-63
2023/07/08 08:42:43;;;;;;;;;;;;;;;23.86;74.56;97168.31;624017;225;64916;-64
2023/07/08 08:45:12;;;;;;;;;;;;;;;23.86;74.55;97178.25;623825;227;64923;-64
2023/07/08 08:47:47;;;;;;;;;;;;;;;23.86;74.57;97180.94;623844;227;64829;-64
2023/07/08 08:50:16;;;;;;;;;;;;;;;23.86;74.59;97179.05;623845;227;67056;-65
2023/07/08 08:52:44;;;;;;;;;;;;;;;23.86;74.58;97184.41;623852;227;62941;-64
2023/07/08 08:55:13;;;;;;;;;;;;;;;23.86;74.57;97183.63;623809;227;64983;-64
2023/07/08 08:57:48;;;;;;;;;;;;;;;23.87;74.58;97182.52;623938;227;64937;-64
2023/07/08 09:00:16;;;;;;;;;;;;;;;23.87;74.54;97190.58;623708;226;63780;-64
2023/07/08 09:02:55;;;;;;;;;;;;;;;23.87;74.56;97190.58;623693;226;67317;-64
2023/07/08 09:05:22;;;;;;;;;;;;;;;23.87;74.54;97187.89;623885;227;64380;-64
2023/07/08 09:08:06;;;;;;;;;;;;;;;23.87;74.52;97195.95;623853;227;65200;-64
2023/07/08 09:10:38;;;;;;;;;;;;;;;23.86;74.54;97200.52;623736;226;65011;-64
2023/07/08 09:13:07;;;;;;;;;;;;;;;23.87;74.56;97201.31;623732;226;67342;-64
2023/07/08 09:15:34;;;;;;;;;;;;;;;23.86;74.54;97179.05;623798;227;65024;-64
2023/07/08 09:18:03;;;;;;;;;;;;;;;23.87;74.59;97187.89;623770;227;67236;-64
2023/07/08 09:20:32;;;;;;;;;;;;;;;23.87;74.54;97182.52;623598;226;67055;-64
2023/07/08 09:23:01;;;;;;;;;;;;;;;23.87;74.57;97177.16;623785;227;63412;-64
2023/07/08 09:25:36;;;;;;;;;;;;;;;23.86;74.54;97173.68;623782;226;65039;-64
2023/07/08 09:28:03;;;;;;;;;;;;;;;23.87;74.51;97171.79;623839;227;65079;-64
2023/07/08 09:30:31;;;;;;;;;;;;;;;23.87;74.53;97174.47;623819;227;62887;-64
2023/07/08 09:33:00;;;;;;;;;;;;;;;23.87;74.52;97164.56;623815;227;64730;-64
2023/07/08 09:35:29;;;;;;;;;;;;;;;23.87;74.56;97161.05;623731;226;67038;-64
2023/07/08 09:37:56;;;;;;;;;;;;;;;23.87;74.54;97161.88;623748;227;62899;-64
2023/07/08 09:40:25;;;;;;;;;;;;;;;23.88;74.51;97157.30;623863;227;67254;-64
2023/07/08 09:42:54;;;;;;;;;;;;;;;23.87;74.51;97159.20;623628;226;67151;-64
2023/07/08 09:45:23;;;;;;;;;;;;;;;23.87;74.49;97161.88;623812;227;64909;-64
2023/07/08 09:47:56;;;;;;;;;;;;;;;23.87;74.48;97159.20;623835;227;67308;-64
2023/07/08 09:50:25;;;;;;;;;;;;;;;23.88;74.48;97154.62;623535;226;67031;-64
2023/07/08 09:52:53;;;;;;;;;;;;;;;23.88;74.48;97143.89;623864;227;64987;-64
2023/07/08 09:55:21;;;;;;;;;;;;;;;23.87;74.51;97136.90;623876;227;67266;-65
2023/07/08 09:57:50;;;;;;;;;;;;;;;23.87;74.49;97137.72;623791;227;65040;-64
2023/07/08 10:00:19;;;;;;;;;;;;;;;23.88;74.47;97138.52;623814;227;64972;-64
2023/07/08 10:02:54;;;;;;;;;;;;;;;23.88;74.44;97125.09;623758;227;67189;-64
2023/07/08 10:05:35;;;;;;;;;;;;;;;23.88;74.43;97130.47;623782;227;67037;-64
2023/07/08 10:08:03;;;;;;;;;;;;;;;23.88;74.47;97127.78;623647;226;64980;-64
2023/07/08 10:10:35;;;;;;;;;;;;;;;23.87;74.40;97121.62;623521;227;67246;-64
2023/07/08 10:13:08;;;;;;;;;;;;;;;23.88;74.40;97133.94;625226;227;64942;-64
2023/07/08 10:15:37;;;;;;;;;;;;;;;23.87;74.42;97121.62;623351;227;65013;-64
2023/07/08 10:18:07;;;;;;;;;;;;;;;23.88;74.44;97125.09;620055;227;67225;-64
2023/07/08 10:20:35;;;;;;;;;;;;;;;23.87;74.43;97110.88;619502;226;66594;-64
2023/07/08 10:23:05;;;;;;;;;;;;;;;23.89;74.44;97119.42;615403;229;64642;-64
2023/07/08 10:25:34;;;;;;;;;;;;;;;23.88;74.40;97123.20;604341;229;66452;-64
2023/07/08 10:28:03;;;;;;;;;;;;;;;23.88;74.42;97119.73;618098;229;67048;-64
2023/07/08 10:30:32;;;;;;;;;;;;;;;23.88;74.37;97125.09;617770;229;65049;-64
2023/07/08 10:33:01;;;;;;;;;;;;;;;23.89;74.39;97124.00;618122;229;67065;-64
2023/07/08 10:35:30;;;;;;;;;;;;;;;23.88;74.41;97122.41;618158;229;64715;-64
2023/07/08 10:38:03;;;;;;;;;;;;;;;23.89;74.37;97124.00;618105;229;65064;-64
2023/07/08 10:40:41;;;;;;;;;;;;;;;23.88;74.39;97125.89;618112;229;66957;-64
2023/07/08 10:43:10;;;;;;;;;;;;;;;23.88;74.39;97128.58;618166;229;64934;-64
2023/07/08 10:45:49;;;;;;;;;;;;;;;23.88;74.37;97133.15;617088;229;62992;-64
2023/07/08 10:48:23;;;;;;;;;;;;;;;23.88;74.35;97130.47;618129;229;64519;-65
2023/07/08 10:50:53;;;;;;;;;;;;;;;23.89;74.36;97121.31;617875;229;65815;-64
2023/07/08 10:53:37;;;;;;;;;;;;;;;23.88;74.41;97125.09;609403;229;62979;-64
2023/07/08 10:56:15;;;;;;;;;;;;;;;23.89;74.35;97121.31;618016;229;67329;-63
2023/07/08 10:58:50;;;;;;;;;;;;;;;23.88;74.39;97120.52;618140;229;64946;-64
2023/07/08 11:01:22;;;;;;;;;;;;;;;23.88;74.40;97128.58;618099;229;65393;-63
2023/07/08 11:03:57;;;;;;;;;;;;;;;23.89;74.37;97129.37;618133;229;67309;-64
2023/07/08 11:06:29;;;;;;;;;;;;;;;23.89;74.41;97124.80;617886;229;67082;-64
2023/07/08 11:08:59;;;;;;;;;;;;;;;23.87;74.41;97110.88;617164;229;65063;-63
2023/07/08 11:11:28;;;;;;;;;;;;;;;23.87;74.44;97102.83;617959;229;68838;-64
2023/07/08 11:13:57;;;;;;;;;;;;;;;23.88;74.42;97090.20;617807;229;67102;-63
2023/07/08 11:16:26;;;;;;;;;;;;;;;23.88;74.43;97100.94;618094;229;64901;-63
2023/07/08 11:18:55;;;;;;;;;;;;;;;23.88;74.38;97112.47;618098;229;67998;-63
2023/07/08 11:21:27;;;;;;;;;;;;;;;23.88;74.31;97112.47;618068;229;72425;-63
2023/07/08 11:24:07;;;;;;;;;;;;;;;23.89;74.32;97135.53;619491;227;65123;-65
2023/07/08 11:26:40;;;;;;;;;;;;;;;23.89;74.31;97132.05;624539;226;67335;-65
2023/07/08 11:29:08;;;;;;;;;;;;;;;23.89;74.35;97140.11;625229;227;67009;-63
2023/07/08 11:31:36;;;;;;;;;;;;;;;23.90;74.37;97157.83;625033;226;63009;-62
2023/07/08 11:34:04;;;;;;;;;;;;;;;23.90;74.31;97192.72;625228;227;64985;-62
2023/07/08 11:36:30;;;;;;;;;;;;;;;;;;625215;227;64402;-62
2023/07/08 11:38:57;;;;;;;;;;;;;;;;;;625288;227;63035;-63
2023/07/08 11:41:23;;;;;;;;;;;;;;;;;;625286;227;66223;-65
2023/07/08 11:43:52;;;;;;;;;;;;;;;23.90;74.40;97243.72;625268;227;67349;-65
2023/07/08 11:46:21;;;;;;;;;;;;;;;23.89;74.46;97234.84;625250;227;65097;-65
2023/07/08 11:48:50;;;;;;;;;;;;;;;23.91;74.38;97245.30;625176;226;64885;-63
2023/07/08 11:51:16;;;;;;;;;;;;;;;;;;625273;227;67034;-63
2023/07/08 11:53:51;;;;;;;;;;;;;;;23.90;74.37;97227.61;625285;227;65027;-61
2023/07/08 11:56:20;;;;;;;;;;;;;;;23.91;74.36;97237.25;625248;227;67280;-63
2023/07/08 11:58:50;;;;;;;;;;;;;;;23.91;74.34;97226.52;621998;227;67037;-63
2023/07/08 12:01:19;;;;;;;;;;;;;;;23.89;74.35;97226.78;624521;227;65026;-63
2023/07/08 12:03:48;;;;;;;;;;;;;;;23.91;74.30;97235.36;624692;227;66763;-63
2023/07/08 12:06:15;;;;;;;;;;;;;;;;;;625120;226;66976;-63
2023/07/08 12:08:41;;;;;;;;;;;;;;;;;;622909;227;65133;-63
2023/07/08 12:11:10;;;;;;;;;;;;;;;23.91;74.29;97250.67;624588;227;66266;-63
2023/07/08 12:13:38;;;;;;;;;;;;;;;23.90;74.31;97251.77;623164;227;67065;-63
2023/07/08 12:16:07;;;;;;;;;;;;;;;23.90;74.32;97243.72;623170;227;65026;-63
2023/07/08 12:18:35;;;;;;;;;;;;;;;23.91;74.35;97246.09;623087;226;65218;-61
2023/07/08 12:21:03;;;;;;;;;;;;;;;23.91;74.31;97245.30;623123;227;67060;-61
2023/07/08 12:23:31;;;;;;;;;;;;;;;23.91;74.28;97253.35;620847;227;65076;-68
2023/07/08 12:25:58;;;;;;;;;;;;;;;23.91;74.29;97251.47;619787;225;67268;-63
2023/07/08 12:28:26;;;;;;;;;;;;;;;23.91;74.41;97256.04;619170;227;66962;-63
2023/07/08 12:30:54;;;;;;;;;;;;;;;23.91;74.43;97256.04;616088;230;63093;-63
2023/07/08 12:33:26;;;;;;;;;;;;;;;23.91;74.43;97250.67;616060;230;67235;-63
2023/07/08 12:35:54;;;;;;;;;;;;;;;23.90;74.38;97246.40;616067;230;67066;-63
2023/07/08 12:38:27;;;;;;;;;;;;;;;23.91;74.41;97245.30;616059;230;62901;-63
2023/07/08 12:40:57;;;;;;;;;;;;;;;23.91;74.39;97245.30;616083;230;67245;-63
2023/07/08 12:43:23;;;;;;;;;;;;;;;;;;615891;228;64919;-63
2023/07/08 12:45:50;;;;;;;;;;;;;;;23.91;74.34;97234.56;616120;230;63002;-63
2023/07/08 12:48:18;;;;;;;;;;;;;;;23.90;74.37;97222.24;616101;230;64986;-63
2023/07/08 12:50:46;;;;;;;;;;;;;;;23.92;74.38;97230.78;616095;230;64652;-61
2023/07/08 12:53:13;;;;;;;;;;;;;;;23.91;74.31;97231.88;616071;230;65135;-61
2023/07/08 12:55:40;;;;;;;;;;;;;;;;;;616120;230;65004;-61
2023/07/08 12:58:09;;;;;;;;;;;;;;;23.91;74.29;97234.56;616076;227;67433;-61
2023/07/08 13:00:35;;;;;;;;;;;;;;;;;;615932;230;65041;-61